Time;durP1;ratioP1;P1;durP2;ratioP2;P2;SDS_P1;SDS_P2;PMS_P1;PMS_P2;Temp;Humidity;BMP_temperature;BMP_pressure;BME280_temperature;BME280_humidity;BME280_pressure;Samples;Min_cycle;Max_cycle;Signal;HPM_P1;HPM_P2
2023/03/05 00:01:31;;;;;;;7.83;2.73;;;3.20;99.90;;;;;;5053626;28;20221;-71
2023/03/05 00:03:57;;;;;;;15.43;4.10;;;3.10;99.90;;;;;;5058305;28;20197;-70
2023/03/05 00:06:25;;;;;;;15.17;3.63;;;3.10;99.90;;;;;;5059121;28;20785;-72
2023/03/05 00:08:52;;;;;;;17.00;4.27;;;3.00;99.90;;;;;;5059083;28;20210;-72
2023/03/05 00:11:19;;;;;;;12.63;4.43;;;3.00;99.90;;;;;;5037052;28;20662;-72
2023/03/05 00:13:45;;;;;;;11.13;3.80;;;2.90;99.90;;;;;;5056322;28;20193;-71
2023/03/05 00:16:13;;;;;;;13.20;3.83;;;2.90;99.90;;;;;;5059419;28;20228;-72
2023/03/05 00:18:39;;;;;;;14.00;3.57;;;2.80;99.90;;;;;;5059901;28;20218;-71
2023/03/05 00:21:17;;;;;;;21.33;3.60;;;2.80;99.90;;;;;;5039874;28;20735;-73
2023/03/05 00:23:42;;;;;;;15.67;2.90;;;2.70;99.90;;;;;;5047171;28;20239;-72
2023/03/05 00:26:08;;;;;;;15.37;3.97;;;2.80;99.90;;;;;;5061129;28;20208;-72
2023/03/05 00:28:34;;;;;;;13.80;4.00;;;2.80;99.90;;;;;;5059748;28;20216;-70
2023/03/05 00:31:00;;;;;;;12.47;3.43;;;2.80;99.90;;;;;;5058711;28;20190;-71
2023/03/05 00:33:25;;;;;;;15.17;3.30;;;2.80;99.90;;;;;;5056514;28;20258;-69
2023/03/05 00:35:51;;;;;;;13.63;4.03;;;2.80;99.90;;;;;;5058489;28;20209;-77
2023/03/05 00:38:17;;;;;;;17.50;4.53;;;2.80;99.90;;;;;;5041787;28;20197;-69
2023/03/05 00:40:42;;;;;;;14.77;4.93;;;2.80;99.90;;;;;;5047014;28;20232;-70
2023/03/05 00:43:12;;;;;;;13.17;3.73;;;2.80;99.90;;;;;;5044922;28;20193;-70
2023/03/05 00:45:37;;;;;;;12.00;3.63;;;2.80;99.90;;;;;;5042556;28;20310;-71
2023/03/05 00:48:03;;;;;;;8.37;3.20;;;2.80;99.90;;;;;;5045439;28;20284;-71
2023/03/05 00:50:29;;;;;;;12.43;3.17;;;2.80;99.90;;;;;;5047931;28;20212;-70
2023/03/05 00:52:54;;;;;;;8.30;2.70;;;2.80;99.90;;;;;;5048379;28;20289;-70
2023/03/05 00:55:20;;;;;;;12.83;2.73;;;2.80;99.90;;;;;;5044404;28;20871;-72
2023/03/05 00:57:46;;;;;;;10.17;3.10;;;2.70;99.90;;;;;;5050230;28;20200;-70
2023/03/05 01:00:13;;;;;;;12.43;2.70;;;2.70;99.90;;;;;;5057557;28;20202;-68
2023/03/05 01:02:39;;;;;;;8.60;2.73;;;2.80;99.90;;;;;;5057673;28;20200;-69
2023/03/05 01:05:05;;;;;;;8.60;2.67;;;2.80;99.90;;;;;;5057599;28;20217;-68
2023/03/05 01:07:30;;;;;;;13.53;2.53;;;2.70;99.90;;;;;;5055551;28;20235;-68
2023/03/05 01:09:56;;;;;;;7.30;2.03;;;2.70;99.90;;;;;;5057174;28;20195;-69
2023/03/05 01:12:22;;;;;;;8.43;2.60;;;2.70;99.90;;;;;;5057642;28;20982;-69
2023/03/05 01:14:47;;;;;;;12.57;2.50;;;2.80;99.90;;;;;;5057538;28;20291;-69
2023/03/05 01:17:15;;;;;;;7.83;2.80;;;2.80;99.90;;;;;;5057325;28;20193;-69
2023/03/05 01:19:41;;;;;;;5.60;2.43;;;2.80;99.90;;;;;;5057039;28;20189;-70
2023/03/05 01:22:07;;;;;;;9.43;2.77;;;2.80;99.90;;;;;;5055086;28;20211;-69
2023/03/05 01:24:32;;;;;;;9.70;2.40;;;2.70;99.90;;;;;;5056735;28;20742;-69
2023/03/05 01:26:58;;;;;;;5.57;2.20;;;2.80;99.90;;;;;;5057392;28;20204;-69
2023/03/05 01:29:23;;;;;;;7.90;2.17;;;2.70;99.90;;;;;;5057234;28;20197;-68
2023/03/05 01:31:49;;;;;;;9.50;3.27;;;2.70;99.90;;;;;;5055515;28;20194;-69
2023/03/05 01:34:15;;;;;;;9.10;2.20;;;2.70;99.90;;;;;;5057081;28;20400;-70
2023/03/05 01:36:41;;;;;;;4.07;1.70;;;2.70;99.90;;;;;;5057188;28;20279;-69
2023/03/05 01:39:06;;;;;;;6.33;2.43;;;2.60;99.90;;;;;;5057056;28;20558;-71
2023/03/05 01:41:33;;;;;;;7.27;2.37;;;2.60;99.90;;;;;;5056676;28;20284;-70
2023/03/05 01:43:58;;;;;;;3.53;1.40;;;2.60;99.90;;;;;;5056125;28;20768;-70
2023/03/05 01:46:36;;;;;;;4.93;1.87;;;2.50;99.90;;;;;;5051641;28;20729;-71
2023/03/05 01:49:10;;;;;;;7.60;2.83;;;2.50;99.90;;;;;;5056981;28;20281;-70
2023/03/05 01:51:44;;;;;;;7.67;1.73;;;2.40;99.90;;;;;;5056935;28;20576;-72
2023/03/05 01:54:12;;;;;;;5.67;1.67;;;2.40;99.90;;;;;;5056973;28;20201;-71
2023/03/05 01:56:43;;;;;;;5.87;1.57;;;2.40;99.90;;;;;;5056963;28;20196;-72
2023/03/05 01:59:10;;;;;;;10.10;1.83;;;2.40;99.90;;;;;;5056409;28;20236;-70
2023/03/05 02:01:40;;;;;;;6.10;1.70;;;2.30;99.90;;;;;;5056573;28;20576;-71
2023/03/05 02:04:08;;;;;;;2.97;1.53;;;2.30;99.90;;;;;;5056787;28;20201;-71
2023/03/05 02:06:34;;;;;;;5.17;1.50;;;2.20;99.90;;;;;;5054317;28;20221;-72
2023/03/05 02:08:59;;;;;;;7.57;1.60;;;2.20;99.90;;;;;;5056326;28;20211;-71
2023/03/05 02:11:25;;;;;;;5.57;1.73;;;2.20;99.90;;;;;;5056126;28;20220;-71
2023/03/05 02:13:51;;;;;;;6.33;1.37;;;2.20;99.90;;;;;;5056265;28;20709;-70
2023/03/05 02:16:17;;;;;;;3.83;2.43;;;2.20;99.90;;;;;;5056215;28;20686;-72
2023/03/05 02:18:42;;;;;;;6.63;1.57;;;2.20;99.90;;;;;;5055865;28;20201;-72
2023/03/05 02:21:11;;;;;;;5.17;1.57;;;2.20;99.90;;;;;;5054210;28;20692;-71
2023/03/05 02:23:37;;;;;;;6.93;2.17;;;2.20;99.90;;;;;;5050999;28;20248;-72
2023/03/05 02:26:04;;;;;;;5.57;1.77;;;2.20;99.90;;;;;;5056043;28;20263;-71
2023/03/05 02:28:32;;;;;;;6.13;2.17;;;2.20;99.90;;;;;;5056198;28;20250;-71
2023/03/05 02:30:58;;;;;;;4.80;1.80;;;2.20;99.90;;;;;;5054844;28;20246;-72
2023/03/05 02:33:24;;;;;;;5.77;1.70;;;2.20;99.90;;;;;;5051175;28;21017;-70
2023/03/05 02:35:50;;;;;;;7.67;2.07;;;2.10;99.90;;;;;;5055611;28;20572;-70
2023/03/05 02:38:18;;;;;;;7.77;1.60;;;2.20;99.90;;;;;;5056164;28;20696;-70
2023/03/05 02:40:43;;;;;;;4.70;1.40;;;2.10;99.90;;;;;;5054036;28;20215;-69
2023/03/05 02:43:10;;;;;;;7.50;1.63;;;2.10;99.90;;;;;;5056121;28;20205;-70
2023/03/05 02:45:36;;;;;;;11.87;1.77;;;2.10;99.90;;;;;;5032535;28;20278;-71
2023/03/05 02:48:01;;;;;;;4.00;1.50;;;2.10;99.90;;;;;;5055941;28;20200;-70
2023/03/05 02:50:28;;;;;;;7.77;1.30;;;2.10;99.90;;;;;;5056068;28;20718;-69
2023/03/05 02:52:53;;;;;;;4.83;1.60;;;2.10;99.90;;;;;;5055728;28;20656;-71
2023/03/05 02:55:19;;;;;;;9.43;2.37;;;2.10;99.90;;;;;;5055952;28;20200;-72
2023/03/05 02:57:45;;;;;;;5.13;1.60;;;2.10;99.90;;;;;;5054008;28;20579;-72
2023/03/05 03:00:11;;;;;;;4.57;1.90;;;2.10;99.90;;;;;;5055688;28;20194;-72
2023/03/05 03:02:37;;;;;;;5.07;1.83;;;2.10;99.90;;;;;;5055852;28;20212;-72
2023/03/05 03:05:03;;;;;;;8.07;2.17;;;2.10;99.90;;;;;;5055853;28;20661;-71
2023/03/05 03:07:29;;;;;;;2.97;2.03;;;2.10;99.90;;;;;;5055442;28;20235;-71
2023/03/05 03:09:54;;;;;;;5.40;1.60;;;2.20;99.90;;;;;;5053881;28;20206;-71
2023/03/05 03:12:20;;;;;;;7.63;1.67;;;2.10;99.90;;;;;;5055440;28;20281;-70
2023/03/05 03:14:45;;;;;;;3.53;1.60;;;2.10;99.90;;;;;;5055697;28;20206;-72
2023/03/05 03:17:14;;;;;;;4.27;1.97;;;2.10;99.90;;;;;;5055922;28;20200;-72
2023/03/05 03:19:43;;;;;;;8.80;2.60;;;2.10;99.90;;;;;;5053796;28;20230;-71
2023/03/05 03:22:11;;;;;;;6.00;2.43;;;2.10;99.90;;;;;;5055431;28;20208;-71
2023/03/05 03:24:37;;;;;;;10.87;2.27;;;2.10;99.90;;;;;;5055539;28;20971;-71
2023/03/05 03:27:03;;;;;;;5.93;1.87;;;2.10;99.90;;;;;;5055489;28;20218;-69
2023/03/05 03:29:29;;;;;;;7.03;1.90;;;2.10;99.90;;;;;;5056087;28;20204;-69
2023/03/05 03:31:54;;;;;;;4.83;1.47;;;2.10;99.90;;;;;;5054708;28;20212;-69
2023/03/05 03:34:20;;;;;;;5.37;2.40;;;2.10;99.90;;;;;;5056749;28;20202;-67
2023/03/05 03:36:47;;;;;;;6.47;2.33;;;2.10;99.90;;;;;;5060035;28;20259;-68
2023/03/05 03:39:14;;;;;;;1.43;1.33;;;2.10;99.90;;;;;;5058774;28;20926;-68
2023/03/05 03:41:46;;;;;;;3.67;1.30;;;2.00;99.90;;;;;;5057523;28;20633;-69
2023/03/05 03:44:12;;;;;;;5.17;1.23;;;2.00;99.90;;;;;;5059463;28;20219;-68
2023/03/05 03:46:39;;;;;;;9.80;1.90;;;2.00;99.90;;;;;;5058918;28;20668;-69
2023/03/05 03:49:05;;;;;;;4.87;1.60;;;1.90;99.90;;;;;;5058933;28;20195;-71
2023/03/05 03:51:31;;;;;;;3.73;2.07;;;1.90;99.90;;;;;;5059158;28;20312;-71
2023/03/05 03:53:58;;;;;;;4.37;1.47;;;1.90;99.90;;;;;;5057138;28;20709;-70
2023/03/05 03:56:23;;;;;;;3.37;1.57;;;1.90;99.90;;;;;;5059255;28;20196;-70
2023/03/05 03:58:50;;;;;;;6.57;1.60;;;1.80;99.90;;;;;;5058838;28;20229;-70
2023/03/05 04:01:17;;;;;;;6.00;1.53;;;1.70;99.90;;;;;;5058982;28;20775;-70
2023/03/05 04:03:42;;;;;;;4.63;1.60;;;1.70;99.90;;;;;;5058709;28;20680;-70
2023/03/05 04:06:08;;;;;;;3.73;1.60;;;1.60;99.90;;;;;;5057635;28;20256;-70
2023/03/05 04:08:34;;;;;;;7.33;1.90;;;1.60;99.90;;;;;;5058962;28;20218;-70
2023/03/05 04:11:00;;;;;;;4.90;1.67;;;1.60;99.90;;;;;;5058634;28;20231;-71
2023/03/05 04:13:26;;;;;;;4.67;1.37;;;1.50;99.90;;;;;;5058783;28;20209;-71
2023/03/05 04:15:52;;;;;;;3.63;1.73;;;1.50;99.90;;;;;;5058539;28;20204;-70
2023/03/05 04:18:18;;;;;;;3.10;2.03;;;1.40;99.90;;;;;;5057013;28;20680;-69
2023/03/05 04:20:43;;;;;;;6.57;2.13;;;1.40;99.90;;;;;;5053486;28;20197;-69
2023/03/05 04:23:09;;;;;;;3.10;1.83;;;1.40;99.90;;;;;;5058468;28;20320;-69
2023/03/05 04:25:34;;;;;;;6.60;1.73;;;1.40;99.90;;;;;;5058472;28;20350;-69
2023/03/05 04:27:59;;;;;;;5.50;2.10;;;1.40;99.90;;;;;;5058468;28;20193;-70
2023/03/05 04:30:25;;;;;;;6.20;1.50;;;1.40;99.90;;;;;;5058694;28;20208;-71
2023/03/05 04:32:50;;;;;;;3.60;2.10;;;1.30;99.90;;;;;;5056224;28;20201;-71
2023/03/05 04:35:16;;;;;;;4.57;1.33;;;1.30;99.90;;;;;;5058458;28;20207;-73
2023/03/05 04:37:41;;;;;;;4.43;1.53;;;1.30;99.90;;;;;;5058474;28;20327;-71
2023/03/05 04:40:08;;;;;;;7.93;1.67;;;1.30;99.90;;;;;;5058575;28;20263;-71
2023/03/05 04:42:33;;;;;;;5.93;1.83;;;1.30;99.90;;;;;;5032209;28;20287;-70
2023/03/05 04:44:59;;;;;;;8.70;2.13;;;1.20;99.90;;;;;;5056782;28;20342;-71
2023/03/05 04:47:24;;;;;;;3.23;1.57;;;1.20;99.90;;;;;;5056138;28;20210;-71
2023/03/05 04:49:50;;;;;;;2.50;1.10;;;1.20;99.90;;;;;;5057919;28;20518;-70
2023/03/05 04:52:16;;;;;;;7.17;1.73;;;1.10;99.90;;;;;;5058049;28;20194;-69
2023/03/05 04:54:43;;;;;;;2.57;1.37;;;1.10;99.90;;;;;;5057751;28;20317;-72
2023/03/05 04:57:08;;;;;;;2.37;1.77;;;1.10;99.90;;;;;;5056256;28;20201;-71
2023/03/05 04:59:35;;;;;;;5.90;1.60;;;1.10;99.90;;;;;;5057975;28;20215;-69
2023/03/05 05:02:00;;;;;;;3.83;1.90;;;1.10;99.90;;;;;;5058056;28;20213;-70
2023/03/05 05:04:26;;;;;;;6.13;1.80;;;1.10;99.90;;;;;;5057520;28;20639;-68
2023/03/05 05:06:55;;;;;;;5.37;1.90;;;1.10;99.90;;;;;;5064117;28;20214;-72
2023/03/05 05:09:20;;;;;;;4.87;1.70;;;1.20;99.90;;;;;;5057228;28;20197;-71
2023/03/05 05:11:46;;;;;;;7.67;1.60;;;1.20;99.90;;;;;;5055513;28;20433;-69
2023/03/05 05:14:11;;;;;;;9.37;1.80;;;1.20;99.90;;;;;;5057411;28;20299;-71
2023/03/05 05:16:37;;;;;;;6.23;2.17;;;1.10;99.90;;;;;;5057330;28;20202;-71
2023/03/05 05:19:02;;;;;;;2.70;1.40;;;1.10;99.90;;;;;;5057648;28;20656;-70
2023/03/05 05:21:28;;;;;;;6.93;2.23;;;1.10;99.90;;;;;;5056897;28;20204;-71
2023/03/05 05:23:53;;;;;;;5.30;1.60;;;1.10;99.90;;;;;;5057175;28;20591;-71
2023/03/05 05:26:19;;;;;;;3.23;1.73;;;1.10;99.90;;;;;;5055223;28;20213;-71
2023/03/05 05:28:44;;;;;;;2.23;1.13;;;1.00;99.90;;;;;;5057203;28;20289;-70
2023/03/05 05:31:12;;;;;;;10.40;2.23;;;1.00;99.90;;;;;;5057153;28;20220;-71
2023/03/05 05:33:38;;;;;;;5.97;1.97;;;1.10;99.90;;;;;;5057093;28;20223;-71
2023/03/05 05:36:06;;;;;;;6.37;1.83;;;1.10;99.90;;;;;;5056957;28;20206;-70
2023/03/05 05:38:33;;;;;;;8.97;1.80;;;1.10;99.90;;;;;;5054832;28;20209;-71
2023/03/05 05:41:06;;;;;;;2.60;1.47;;;1.10;99.90;;;;;;5056679;28;20198;-71
2023/03/05 05:43:34;;;;;;;5.90;1.60;;;1.20;99.90;;;;;;5056795;28;20210;-72
2023/03/05 05:46:04;;;;;;;5.30;1.90;;;1.20;99.90;;;;;;5056812;28;20224;-70
2023/03/05 05:48:32;;;;;;;5.63;2.07;;;1.20;99.90;;;;;;5052333;28;20221;-71
2023/03/05 05:50:58;;;;;;;4.77;1.50;;;1.20;99.90;;;;;;5056445;28;20206;-71
2023/03/05 05:53:24;;;;;;;4.90;2.20;;;1.20;99.90;;;;;;5056934;28;20205;-71
2023/03/05 05:55:50;;;;;;;3.37;1.77;;;1.20;99.90;;;;;;5056380;28;20283;-71
2023/03/05 05:58:16;;;;;;;6.50;1.90;;;1.30;99.90;;;;;;5054514;28;20280;-71
2023/03/05 06:00:41;;;;;;;6.77;1.60;;;1.30;99.90;;;;;;5056456;28;20872;-70
2023/03/05 06:03:07;;;;;;;6.50;2.63;;;1.40;99.90;;;;;;5056627;28;20208;-71
2023/03/05 06:05:33;;;;;;;7.27;1.50;;;1.40;99.90;;;;;;5056703;28;20222;-70
2023/03/05 06:07:59;;;;;;;5.53;1.73;;;1.40;99.90;;;;;;5056041;28;20228;-71
2023/03/05 06:10:24;;;;;;;3.90;1.27;;;1.40;99.90;;;;;;5056568;28;20214;-71
2023/03/05 06:12:50;;;;;;;4.60;2.33;;;1.30;99.90;;;;;;5054527;28;20574;-71
2023/03/05 06:15:17;;;;;;;6.30;1.87;;;1.40;99.90;;;;;;5056468;28;20602;-71
2023/03/05 06:17:43;;;;;;;5.50;2.27;;;1.40;99.90;;;;;;5056369;28;20295;-71
2023/03/05 06:20:09;;;;;;;8.67;1.90;;;1.50;99.90;;;;;;5056040;28;21040;-72
2023/03/05 06:22:36;;;;;;;7.47;3.17;;;1.50;99.90;;;;;;5056112;28;20213;-70
2023/03/05 06:25:02;;;;;;;9.57;2.50;;;1.60;99.90;;;;;;5055463;28;20615;-70
2023/03/05 06:27:27;;;;;;;4.93;1.97;;;1.60;99.90;;;;;;5054116;28;20223;-71
2023/03/05 06:29:55;;;;;;;6.10;1.83;;;1.70;99.90;;;;;;5055994;28;20289;-70
2023/03/05 06:32:21;;;;;;;7.57;2.10;;;1.70;99.90;;;;;;5055976;28;20695;-70
2023/03/05 06:34:47;;;;;;;8.33;1.67;;;1.80;99.90;;;;;;5055640;28;20213;-69
2023/03/05 06:37:12;;;;;;;7.30;2.43;;;1.90;99.90;;;;;;5055857;28;20280;-69
2023/03/05 06:39:38;;;;;;;9.73;1.70;;;1.90;99.90;;;;;;5054203;28;20240;-70
2023/03/05 06:42:03;;;;;;;4.90;1.77;;;2.00;99.90;;;;;;5051466;28;20287;-70
2023/03/05 06:44:29;;;;;;;4.60;1.73;;;2.10;99.90;;;;;;5056091;28;20283;-71
2023/03/05 06:46:54;;;;;;;3.60;1.23;;;2.10;99.90;;;;;;5055793;28;20824;-72
2023/03/05 06:49:20;;;;;;;4.80;2.10;;;2.20;99.90;;;;;;5055811;28;20204;-71
2023/03/05 06:51:46;;;;;;;6.23;1.90;;;2.20;99.90;;;;;;5055756;28;20210;-70
2023/03/05 06:54:14;;;;;;;8.53;1.63;;;2.20;99.90;;;;;;5053783;28;20279;-71
2023/03/05 06:56:41;;;;;;;5.87;1.60;;;2.20;99.90;;;;;;5055447;28;20209;-71
2023/03/05 06:59:09;;;;;;;4.30;1.43;;;2.20;99.90;;;;;;5037785;28;20207;-71
2023/03/05 07:01:35;;;;;;;6.93;1.67;;;2.10;99.90;;;;;;5055744;28;20222;-71
2023/03/05 07:04:01;;;;;;;3.73;1.57;;;2.10;99.90;;;;;;5055375;28;20201;-72
2023/03/05 07:06:30;;;;;;;4.10;1.53;;;2.20;99.90;;;;;;5054110;28;20220;-71
2023/03/05 07:08:56;;;;;;;5.57;1.80;;;2.30;99.90;;;;;;5055143;28;20559;-72
2023/03/05 07:11:22;;;;;;;1.90;1.37;;;2.40;99.90;;;;;;5055334;28;20201;-72
2023/03/05 07:13:48;;;;;;;1.87;1.17;;;2.50;99.90;;;;;;5055359;28;20262;-72
2023/03/05 07:16:20;;;;;;;4.43;1.97;;;2.50;99.90;;;;;;5053480;28;20221;-69
2023/03/05 07:18:46;;;;;;;2.80;1.90;;;2.40;99.90;;;;;;5051895;28;20298;-70
2023/03/05 07:21:20;;;;;;;7.30;2.00;;;2.40;99.90;;;;;;5055302;28;20227;-70
2023/03/05 07:23:45;;;;;;;4.67;1.47;;;2.40;99.90;;;;;;5055790;28;20229;-70
2023/03/05 07:26:12;;;;;;;8.23;1.80;;;2.40;99.90;;;;;;5053563;28;20281;-70
2023/03/05 07:28:37;;;;;;;2.80;1.30;;;2.30;99.90;;;;;;5055258;28;20207;-71
2023/03/05 07:31:06;;;;;;;7.03;1.43;;;2.30;99.90;;;;;;5055344;28;20190;-70
2023/03/05 07:33:34;;;;;;;4.77;1.67;;;2.30;99.90;;;;;;5055467;28;20228;-69
2023/03/05 07:36:00;;;;;;;5.83;1.93;;;2.40;99.90;;;;;;5053138;28;20198;-70
2023/03/05 07:38:26;;;;;;;7.87;1.40;;;2.40;99.90;;;;;;5055470;28;20200;-71
2023/03/05 07:40:52;;;;;;;6.23;1.70;;;2.50;99.90;;;;;;5055177;28;20239;-73
2023/03/05 07:43:18;;;;;;;5.07;1.27;;;2.50;99.90;;;;;;5055463;28;20741;-71
2023/03/05 07:45:45;;;;;;;6.10;1.50;;;2.60;99.90;;;;;;5054951;28;20273;-72
2023/03/05 07:48:19;;;;;;;4.30;1.40;;;2.50;99.90;;;;;;5055332;28;20192;-71
2023/03/05 07:50:46;;;;;;;4.80;1.23;;;2.50;99.90;;;;;;5055145;28;20647;-70
2023/03/05 07:53:12;;;;;;;3.23;1.70;;;2.50;99.90;;;;;;5055253;28;20215;-70
2023/03/05 07:55:44;;;;;;;6.50;1.23;;;2.50;99.90;;;;;;5055044;28;20197;-70
2023/03/05 07:58:11;;;;;;;2.80;1.37;;;2.60;99.90;;;;;;5050277;28;20201;-72
2023/03/05 08:00:37;;;;;;;7.93;1.70;;;2.60;99.90;;;;;;5054590;28;20214;-72
2023/03/05 08:03:02;;;;;;;3.10;1.40;;;2.60;99.90;;;;;;5055047;28;20780;-71
2023/03/05 08:05:28;;;;;;;1.73;1.30;;;2.50;99.90;;;;;;5054769;28;20233;-71
2023/03/05 08:07:53;;;;;;;8.97;1.60;;;2.50;99.90;;;;;;5054642;28;20284;-71
2023/03/05 08:10:19;;;;;;;3.03;1.60;;;2.50;99.90;;;;;;5053062;28;20186;-71
2023/03/05 08:12:44;;;;;;;6.33;1.50;;;2.70;99.90;;;;;;5054895;28;20207;-71
2023/03/05 08:15:10;;;;;;;4.60;1.50;;;2.80;99.90;;;;;;5054595;28;20598;-71
2023/03/05 08:17:36;;;;;;;1.50;1.30;;;3.00;99.90;;;;;;5061683;28;20197;-70
2023/03/05 08:20:04;;;;;;;3.50;1.47;;;3.10;99.90;;;;;;5062241;28;20199;-70
2023/03/05 08:22:32;;;;;;;3.63;1.50;;;3.10;99.90;;;;;;5062257;28;20227;-72
2023/03/05 08:24:58;;;;;;;2.83;1.47;;;3.20;99.90;;;;;;5065887;28;20198;-72
2023/03/05 08:27:24;;;;;;;6.27;1.57;;;3.30;99.90;;;;;;5064318;28;20209;-70
2023/03/05 08:29:49;;;;;;;7.07;2.00;;;3.50;99.90;;;;;;5064604;28;20190;-70
2023/03/05 08:32:15;;;;;;;2.47;1.30;;;3.70;99.90;;;;;;5060670;28;20201;-69
2023/03/05 08:34:40;;;;;;;1.70;0.97;;;3.90;99.90;;;;;;5049153;28;20518;-69
2023/03/05 08:37:08;;;;;;;3.83;1.47;;;3.90;99.90;;;;;;5052838;28;20205;-69
2023/03/05 08:39:33;;;;;;;2.93;1.23;;;3.70;99.90;;;;;;5050198;28;20230;-70
2023/03/05 08:41:59;;;;;;;1.33;1.23;;;3.60;99.90;;;;;;5055873;28;20241;-71
2023/03/05 08:44:24;;;;;;;5.30;1.67;;;3.60;99.90;;;;;;5055337;28;20766;-72
2023/03/05 08:46:50;;;;;;;2.27;1.20;;;3.70;99.90;;;;;;5055025;28;20280;-72
2023/03/05 08:49:15;;;;;;;3.23;1.40;;;3.70;99.90;;;;;;5054596;28;20594;-71
2023/03/05 08:51:41;;;;;;;3.93;1.30;;;3.60;99.90;;;;;;5055388;28;20211;-72
2023/03/05 08:54:08;;;;;;;2.60;0.80;;;3.70;99.90;;;;;;5055397;28;20201;-72
2023/03/05 08:56:34;;;;;;;5.17;1.40;;;3.60;99.90;;;;;;5054816;28;20684;-71
2023/03/05 08:59:00;;;;;;;8.23;1.67;;;3.60;99.90;;;;;;5055097;28;20211;-72
2023/03/05 09:01:26;;;;;;;4.17;1.10;;;3.80;99.90;;;;;;5053634;28;20190;-70
2023/03/05 09:03:52;;;;;;;2.23;1.63;;;3.80;99.90;;;;;;5054299;28;20208;-71
2023/03/05 09:06:18;;;;;;;4.13;1.67;;;3.80;99.90;;;;;;5057127;28;20704;-72
2023/03/05 09:08:43;;;;;;;4.10;1.10;;;3.90;99.90;;;;;;5057494;28;20285;-73
2023/03/05 09:11:12;;;;;;;4.83;0.83;;;4.00;99.90;;;;;;5057511;28;20269;-72
2023/03/05 09:13:37;;;;;;;3.43;1.20;;;4.00;99.90;;;;;;5055300;28;20218;-72
2023/03/05 09:16:05;;;;;;;7.10;1.40;;;4.00;99.90;;;;;;5057000;28;20668;-69
2023/03/05 09:18:32;;;;;;;5.60;1.53;;;3.90;99.90;;;;;;5038825;28;20824;-71
2023/03/05 09:20:57;;;;;;;3.57;1.23;;;3.90;99.90;;;;;;5056955;28;20630;-75
2023/03/05 09:23:23;;;;;;;6.73;1.37;;;4.10;99.90;;;;;;5057065;28;20222;-71
2023/03/05 09:25:49;;;;;;;5.23;1.37;;;4.00;99.90;;;;;;5054934;28;20212;-72
2023/03/05 09:28:15;;;;;;;3.20;1.30;;;3.90;99.90;;;;;;5057075;28;20245;-72
2023/03/05 09:30:41;;;;;;;1.37;1.10;;;3.90;99.90;;;;;;5057550;28;20194;-72
2023/03/05 09:33:07;;;;;;;1.93;1.10;;;4.00;99.90;;;;;;5039103;28;20800;-80
2023/03/05 09:35:35;;;;;;;3.57;1.53;;;4.10;99.90;;;;;;5057489;28;20210;-82
2023/03/05 09:38:01;;;;;;;4.03;0.80;;;4.10;99.90;;;;;;5056364;28;20197;-81
2023/03/05 09:40:36;;;;;;;2.53;1.20;;;4.10;99.90;;;;;;5039897;28;20200;-80
2023/03/05 09:43:45;;;;;;;0.90;0.90;;;4.30;99.90;;;;;;5058012;28;20200;-80
2023/03/05 09:46:18;;;;;;;2.30;1.20;;;4.40;99.00;;;;;;5056319;28;20268;-82
2023/03/05 09:49:07;;;;;;;6.00;1.33;;;4.70;99.70;;;;;;5056055;28;21071;-69
2023/03/05 09:51:37;;;;;;;5.73;1.40;;;4.60;98.60;;;;;;5054948;28;20198;-67
2023/03/05 09:54:28;;;;;;;0.77;0.77;;;4.40;99.70;;;;;;5053997;28;20243;-67
2023/03/05 09:56:56;;;;;;;1.50;1.40;;;4.50;99.30;;;;;;5054278;28;20244;-68
2023/03/05 09:59:34;;;;;;;4.00;1.27;;;4.60;98.40;;;;;;5054660;28;20226;-66
2023/03/05 10:02:08;;;;;;;4.13;2.13;;;4.40;98.00;;;;;;5056724;28;20241;-69
2023/03/05 10:04:51;;;;;;;1.43;1.30;;;4.30;98.60;;;;;;5055299;28;20194;-68
2023/03/05 10:07:26;;;;;;;3.73;1.03;;;4.30;98.10;;;;;;5053995;28;20585;-68
2023/03/05 10:10:32;;;;;;;3.13;1.27;;;4.20;98.50;;;;;;5054160;28;20559;-68
2023/03/05 10:13:03;;;;;;;4.67;1.40;;;4.20;98.20;;;;;;5044443;28;20253;-68
2023/03/05 10:15:49;;;;;;;3.07;1.20;;;4.20;98.30;;;;;;5056764;28;20239;-84
2023/03/05 10:18:31;;;;;;;3.37;1.63;;;4.10;98.20;;;;;;5053576;28;20205;-67
2023/03/05 10:21:08;;;;;;;4.77;1.73;;;3.90;97.90;;;;;;5051597;28;20321;-67
2023/03/05 10:24:02;;;;;;;3.70;1.30;;;3.80;99.00;;;;;;5056083;28;20357;-70
2023/03/05 10:27:06;;;;;;;1.70;1.07;;;3.90;99.40;;;;;;5055021;28;20240;-71
2023/03/05 10:29:49;;;;;;;3.33;1.40;;;3.80;99.90;;;;;;5054168;28;20212;-78
2023/03/05 10:32:25;;;;;;;2.43;1.57;;;3.70;99.90;;;;;;5056012;28;20245;-79
2023/03/05 10:35:09;;;;;;;1.83;1.07;;;3.50;99.90;;;;;;5054464;28;20220;-77
2023/03/05 10:37:46;;;;;;;8.13;1.73;;;3.40;99.90;;;;;;5055040;28;20205;-75
2023/03/05 10:40:35;;;;;;;1.90;1.57;;;3.30;99.90;;;;;;5053061;28;20210;-78
2023/03/05 10:43:24;;;;;;;4.27;1.53;;;3.30;99.90;;;;;;5053003;28;20201;-78
2023/03/05 10:45:52;;;;;;;2.80;1.80;;;3.30;99.90;;;;;;5055432;28;20602;-76
2023/03/05 10:48:32;;;;;;;2.33;1.83;;;3.30;99.90;;;;;;5055464;28;21037;-77
2023/03/05 10:51:23;;;;;;;3.70;1.67;;;3.30;99.90;;;;;;5054054;28;20255;-76
2023/03/05 10:54:08;;;;;;;2.40;1.70;;;3.40;99.90;;;;;;5052718;28;20202;-75
2023/03/05 10:56:33;;;;;;;4.50;1.10;;;3.40;99.90;;;;;;5053084;28;20792;-77
2023/03/05 10:58:59;;;;;;;1.57;1.23;;;3.40;99.90;;;;;;5055161;28;20235;-78
2023/03/05 11:01:27;;;;;;;7.70;2.00;;;3.50;99.90;;;;;;5053318;28;20676;-79
2023/03/05 11:03:58;;;;;;;1.47;1.37;;;3.60;99.90;;;;;;5052912;28;20220;-76
2023/03/05 11:06:29;;;;;;;5.30;1.47;;;3.60;99.90;;;;;;5055333;28;20691;-78
2023/03/05 11:09:13;;;;;;;3.60;1.23;;;3.70;99.90;;;;;;5052783;28;20201;-73
2023/03/05 11:11:38;;;;;;;5.95;2.13;;;3.70;99.90;;;;;;5055417;28;20456;-80
2023/03/05 11:14:04;;;;;;;4.33;1.67;;;3.70;99.90;;;;;;5054991;28;20734;-80
2023/03/05 11:16:44;;;;;;;5.83;1.53;;;3.70;99.90;;;;;;5056817;28;20205;-81
2023/03/05 11:19:17;;;;;;;1.27;1.23;;;3.90;99.90;;;;;;5059491;28;20291;-80
2023/03/05 11:21:44;;;;;;;5.17;1.50;;;3.90;99.90;;;;;;5055610;28;20214;-80
2023/03/05 11:24:17;;;;;;;2.30;1.83;;;3.90;99.90;;;;;;5050322;28;20228;-81
2023/03/05 11:26:55;;;;;;;2.53;1.43;;;3.80;99.90;;;;;;5055562;28;20305;-74
2023/03/05 11:29:29;;;;;;;4.47;1.00;;;3.80;99.90;;;;;;5053491;28;20781;-80
2023/03/05 11:32:13;;;;;;;6.43;2.00;;;3.90;99.90;;;;;;5053133;28;20216;-80
2023/03/05 11:34:39;;;;;;;3.63;1.30;;;3.90;99.90;;;;;;5053444;28;20202;-76
2023/03/05 11:37:05;;;;;;;4.30;1.60;;;4.10;99.90;;;;;;5054168;28;20194;-78
2023/03/05 11:39:34;;;;;;;3.63;2.17;;;4.20;99.90;;;;;;5050505;28;20355;-77
2023/03/05 11:42:11;;;;;;;2.57;1.53;;;4.30;99.90;;;;;;5051790;28;20206;-78
2023/03/05 11:44:49;;;;;;;5.07;2.17;;;4.30;99.90;;;;;;5051615;28;20622;-78
2023/03/05 11:47:28;;;;;;;5.00;1.83;;;4.30;99.90;;;;;;5054687;28;20274;-81
2023/03/05 11:50:03;;;;;;;3.10;1.60;;;4.20;99.90;;;;;;5053354;28;20198;-79
2023/03/05 11:52:46;;;;;;;2.53;1.53;;;4.30;99.90;;;;;;5051909;28;20232;-74
2023/03/05 11:55:17;;;;;;;4.73;1.63;;;4.40;99.90;;;;;;5055332;28;20291;-78
2023/03/05 11:58:01;;;;;;;2.67;1.60;;;4.30;99.90;;;;;;5057994;28;20202;-78
2023/03/05 12:00:29;;;;;;;1.83;1.73;;;4.40;99.90;;;;;;5052764;28;20576;-76
2023/03/05 12:02:59;;;;;;;2.67;1.77;;;4.20;99.90;;;;;;5057684;28;20202;-76
2023/03/05 12:05:27;;;;;;;4.17;1.80;;;3.90;99.90;;;;;;5055086;28;20210;-77
2023/03/05 12:07:57;;;;;;;2.03;1.80;;;3.70;99.90;;;;;;5058500;28;20198;-74
2023/03/05 12:10:24;;;;;;;7.07;1.63;;;3.80;99.90;;;;;;5038891;28;20193;-76
2023/03/05 12:13:26;;;;;;;3.77;1.77;;;4.20;99.90;;;;;;5055572;28;20280;-74
2023/03/05 12:16:23;;;;;;;6.53;1.83;;;4.70;99.90;;;;;;5040771;28;20228;-78
2023/03/05 12:19:19;;;;;;;3.47;1.80;;;4.60;99.90;;;;;;5058309;28;20209;-75
2023/03/05 12:21:50;;;;;;;1.73;1.40;;;4.70;99.90;;;;;;5040269;28;20235;-76
2023/03/05 12:24:24;;;;;;;4.30;1.87;;;5.10;99.90;;;;;;5058527;28;20228;-75
2023/03/05 12:27:01;;;;;;;2.93;1.93;;;5.30;98.90;;;;;;5058422;28;20209;-76
2023/03/05 12:29:31;;;;;;;1.90;1.20;;;5.30;98.90;;;;;;5056908;28;20198;-76
2023/03/05 12:32:00;;;;;;;4.63;1.17;;;5.40;98.90;;;;;;5058616;28;20234;-76
2023/03/05 12:34:38;;;;;;;3.87;1.63;;;5.70;98.70;;;;;;5058495;28;20778;-76
2023/03/05 12:37:10;;;;;;;3.13;1.20;;;5.90;96.90;;;;;;5053945;28;20209;-75
2023/03/05 12:39:48;;;;;;;3.43;1.63;;;5.60;96.70;;;;;;5059098;28;20287;-76
2023/03/05 12:42:41;;;;;;;4.93;1.60;;;4.90;97.60;;;;;;5057494;28;20208;-77
2023/03/05 12:45:15;;;;;;;2.53;1.17;;;4.70;97.30;;;;;;5056432;28;20213;-74
2023/03/05 12:47:42;;;;;;;1.17;1.00;;;4.60;97.60;;;;;;5058781;28;20240;-78
2023/03/05 12:50:26;;;;;;;4.00;1.70;;;4.60;97.00;;;;;;5058432;28;20202;-75
2023/03/05 12:53:20;;;;;;;2.10;1.20;;;4.70;97.00;;;;;;5058691;28;20549;-73
2023/03/05 12:56:18;;;;;;;3.43;1.70;;;4.80;96.90;;;;;;5053843;28;20217;-75
2023/03/05 12:58:50;;;;;;;10.60;1.80;;;4.70;98.10;;;;;;5058041;28;20224;-75
2023/03/05 13:01:41;;;;;;;6.50;1.73;;;4.50;99.50;;;;;;5051563;28;20233;-74
2023/03/05 13:04:21;;;;;;;3.60;1.93;;;4.60;99.90;;;;;;5057824;28;20261;-74
2023/03/05 13:06:57;;;;;;;3.17;1.77;;;4.60;99.90;;;;;;5054483;28;20217;-77